Terminal Aerodrome Forecast
Issued by NWS

Home | Current Version | Previous Version | Text Only | Print | Product List | Glossary On
Versions: 1 2 3 4 5 6 7 8 9 10 11 12 13 14 15
975
FTUS45 KTFX 101123
TAFHLN
TAF
KHLN 101123Z 1012/1112 00000KT P6SM BKN080
      TEMPO 1012/1016 4SM -SN OVC045
     FM102100 28008KT P6SM BKN060
     FM110200 27007KT P6SM FEW110 WS020/28035KT
     FM110700 24005KT P6SM BKN100=

USA.gov is the U.S. government's official web portal to all federal, state and local government web resources and services.